createdAt,value
2018-02-06T00:01:59.728Z,63.43
2018-02-06T00:04:28.425Z,59.10
2018-02-06T00:06:56.382Z,54.60
2018-02-06T00:09:24.189Z,61.63
2018-02-06T00:11:52.856Z,53.57
2018-02-06T00:14:20.772Z,57.53
2018-02-06T00:16:48.574Z,50.00
2018-02-06T00:19:16.350Z,50.77
2018-02-06T00:21:44.097Z,50.40
2018-02-06T00:24:12.165Z,51.57
2018-02-06T00:26:40.361Z,49.60
2018-02-06T00:29:08.315Z,48.17
2018-02-06T00:31:36.297Z,54.10
2018-02-06T00:34:04.157Z,43.73
2018-02-06T00:36:32.049Z,44.07
2018-02-06T00:38:59.788Z,42.57
2018-02-06T00:41:27.749Z,42.80
2018-02-06T00:43:55.606Z,42.60
2018-02-06T00:46:23.395Z,45.00
2018-02-06T00:48:51.258Z,48.27
2018-02-06T00:51:19.170Z,43.97
2018-02-06T00:53:47.090Z,38.73
2018-02-06T00:56:14.894Z,40.87
2018-02-06T00:58:44.644Z,42.70
2018-02-06T01:01:12.539Z,39.03
2018-02-06T01:03:40.365Z,49.57
2018-02-06T01:06:08.268Z,44.17
2018-02-06T01:08:36.038Z,42.30
2018-02-06T01:11:04.101Z,43.30
2018-02-06T01:13:31.941Z,37.10
2018-02-06T01:15:59.735Z,46.33
2018-02-06T01:18:27.608Z,42.70
2018-02-06T01:20:56.102Z,44.37
2018-02-06T01:23:24.786Z,47.00
2018-02-06T01:25:53.351Z,47.00
2018-02-06T01:28:21.216Z,48.67
2018-02-06T01:30:49.163Z,42.60
2018-02-06T01:33:17.028Z,43.20
2018-02-06T01:35:44.816Z,43.10
2018-02-06T01:38:12.602Z,46.20
2018-02-06T01:40:42.543Z,42.00
2018-02-06T01:43:10.376Z,48.73
2018-02-06T01:45:39.142Z,48.97
2018-02-06T01:48:07.011Z,43.27
2018-02-06T01:50:34.892Z,44.43
2018-02-06T01:53:03.543Z,42.60
2018-02-06T01:55:31.325Z,47.43
2018-02-06T01:57:59.294Z,49.17
2018-02-06T02:00:27.253Z,40.77
2018-02-06T02:02:55.218Z,44.57
2018-02-06T02:05:23.106Z,41.67
2018-02-06T02:07:50.965Z,44.53
2018-02-06T02:10:18.726Z,39.80
2018-02-06T02:12:46.595Z,40.83
2018-02-06T02:15:14.440Z,40.07
2018-02-06T02:17:42.223Z,47.47
2018-02-06T02:20:10.071Z,44.83
2018-02-06T02:22:38.881Z,49.50
2018-02-06T02:25:08.304Z,44.77
2018-02-06T02:27:36.969Z,46.30
2018-02-06T02:30:04.753Z,40.27
2018-02-06T02:32:33.313Z,45.93
2018-02-06T02:35:01.261Z,46.23
2018-02-06T02:37:29.366Z,49.37
2018-02-06T02:39:57.736Z,41.97
2018-02-06T04:40:47.330Z,40.90
2018-02-06T04:43:15.117Z,40.20
2018-02-06T04:45:43.002Z,38.10
2018-02-06T04:48:10.971Z,37.17
2018-02-06T04:50:39.082Z,36.47
2018-02-06T04:53:07.582Z,44.87
2018-02-06T04:55:35.398Z,38.67
2018-02-06T04:58:03.269Z,35.57
2018-02-06T05:00:31.026Z,38.57
2018-02-06T05:02:58.804Z,38.70
2018-02-06T05:05:26.752Z,47.33
2018-02-06T05:07:54.515Z,36.70
2018-02-06T05:10:22.757Z,46.47
2018-02-06T05:12:51.201Z,39.97
2018-02-06T05:15:19.939Z,40.73
2018-02-06T05:17:48.009Z,40.67
2018-02-06T05:20:15.803Z,37.57
2018-02-06T05:22:43.853Z,50.50
2018-02-06T05:25:11.626Z,49.40
2018-02-06T05:27:39.669Z,46.10
2018-02-06T05:30:07.465Z,42.43
2018-02-06T05:32:35.231Z,47.57
2018-02-06T05:35:03.007Z,50.37
2018-02-06T05:37:30.836Z,61.27
2018-02-06T05:39:58.704Z,43.00
2018-02-06T05:42:26.650Z,46.37
2018-02-06T05:44:54.436Z,56.77
2018-02-06T05:47:22.308Z,44.80
2018-02-06T05:49:50.156Z,41.93
2018-02-06T05:52:18.033Z,50.10
2018-02-06T05:54:45.801Z,46.33
2018-02-06T05:57:13.686Z,41.07
2018-02-06T05:59:41.589Z,50.60
2018-02-06T06:02:10.100Z,47.40
2018-02-06T06:04:38.389Z,56.77
2018-02-06T06:07:06.247Z,51.97
2018-02-06T06:09:34.143Z,42.03
2018-02-06T06:12:02.013Z,48.33
2018-02-06T06:14:29.784Z,46.40
2018-02-06T06:16:57.948Z,48.20
2018-02-06T06:19:25.939Z,46.80
2018-02-06T06:21:55.010Z,45.97
2018-02-06T06:24:24.225Z,74.17
2018-02-06T06:26:53.415Z,48.90
2018-02-06T06:29:22.517Z,64.03
2018-02-06T06:31:51.605Z,55.60
2018-02-06T06:34:20.706Z,46.03
2018-02-06T06:36:49.898Z,52.83
2018-02-06T06:39:19.187Z,44.20
2018-02-06T06:41:48.663Z,49.80
2018-02-06T06:44:17.765Z,50.93
2018-02-06T06:46:46.918Z,52.90
2018-02-06T06:49:16.093Z,46.43
2018-02-06T06:51:46.177Z,49.90
2018-02-06T06:54:15.307Z,45.10
2018-02-06T06:56:44.527Z,40.23
2018-02-06T06:59:13.875Z,44.73
2018-02-06T07:01:43.069Z,46.27
2018-02-06T07:04:12.820Z,43.10
2018-02-06T07:06:42.631Z,38.47
2018-02-06T07:09:11.895Z,43.43
2018-02-06T07:11:41.192Z,40.90
2018-02-06T07:14:10.597Z,40.43
2018-02-06T07:16:40.200Z,42.33
2018-02-06T07:19:09.511Z,46.90
2018-02-06T07:21:39.012Z,42.93
2018-02-06T07:24:08.229Z,43.03
2018-02-06T07:26:37.429Z,37.70
2018-02-06T07:29:06.557Z,37.63
2018-02-06T07:31:35.864Z,42.57
2018-02-06T07:34:05.125Z,41.93
2018-02-06T07:36:34.332Z,50.30
2018-02-06T07:39:03.623Z,36.53
2018-02-06T07:41:32.725Z,38.27
2018-02-06T07:44:02.190Z,45.53
2018-02-06T07:46:31.288Z,43.83
2018-02-06T07:49:00.455Z,42.93
2018-02-06T07:51:29.609Z,43.50
2018-02-06T07:53:58.878Z,40.97
2018-02-06T07:56:28.113Z,38.80
2018-02-06T07:58:57.170Z,40.10
2018-02-06T08:01:25.141Z,46.80
2018-02-06T08:03:53.137Z,38.77
2018-02-06T08:06:21.019Z,43.37
2018-02-06T08:08:48.888Z,35.50
2018-02-06T08:11:17.628Z,38.00
2018-02-06T08:13:45.915Z,36.70
2018-02-06T08:16:13.685Z,40.60
2018-02-06T08:18:41.557Z,40.03
2018-02-06T08:21:09.328Z,35.97
2018-02-06T08:23:37.122Z,46.87
2018-02-06T08:26:05.799Z,37.50
2018-02-06T08:28:34.454Z,37.10
2018-02-06T08:31:02.241Z,37.50
2018-02-06T08:33:30.903Z,38.30
2018-02-06T08:35:58.782Z,49.93
2018-02-06T08:38:26.586Z,50.83
2018-02-06T08:40:54.607Z,39.47
2018-02-06T08:43:22.885Z,39.33
2018-02-06T08:45:51.415Z,38.40
2018-02-06T08:48:19.426Z,40.20
2018-02-06T08:50:47.299Z,41.27
2018-02-06T08:53:15.188Z,42.47
2018-02-06T08:55:43.854Z,43.53
2018-02-06T08:58:11.790Z,41.77
2018-02-06T09:00:39.690Z,46.03
2018-02-06T09:03:07.563Z,50.87
2018-02-06T09:05:35.537Z,46.20
2018-02-06T09:08:03.382Z,51.50
2018-02-06T09:10:31.258Z,42.53
2018-02-06T09:12:59.207Z,48.67
2018-02-06T09:15:27.026Z,49.40
2018-02-06T09:17:55.775Z,47.20
2018-02-06T09:20:23.625Z,56.47
2018-02-06T09:22:51.488Z,52.50
2018-02-06T09:25:19.644Z,49.50
2018-02-06T09:27:47.452Z,44.03
2018-02-06T09:30:15.310Z,62.70
2018-02-06T09:32:43.161Z,53.27
2018-02-06T09:35:11.037Z,44.90
2018-02-06T09:37:38.799Z,49.57
2018-02-06T09:40:07.425Z,51.07
2018-02-06T09:42:36.081Z,47.67
2018-02-06T09:45:04.676Z,58.70
2018-02-06T09:47:32.607Z,55.27
2018-02-06T09:50:00.356Z,52.37
2018-02-06T09:52:28.092Z,51.00
2018-02-06T09:54:56.648Z,57.07
2018-02-06T09:57:24.509Z,54.53
2018-02-06T09:59:53.193Z,63.27
2018-02-06T10:02:20.987Z,50.47
2018-02-06T10:04:49.956Z,56.53
2018-02-06T10:07:17.913Z,58.20
2018-02-06T10:09:45.761Z,57.03
2018-02-06T10:12:13.554Z,52.83
2018-02-06T10:14:42.863Z,51.07
2018-02-06T10:17:10.709Z,55.00
2018-02-06T10:19:38.481Z,54.77
2018-02-06T10:22:07.167Z,70.73
2018-02-06T10:24:35.218Z,56.33
2018-02-06T10:27:03.001Z,57.30
2018-02-06T10:29:30.860Z,56.10
2018-02-06T10:31:58.635Z,50.37
2018-02-06T10:34:26.554Z,50.73
2018-02-06T10:36:54.478Z,54.40
2018-02-06T10:39:23.240Z,50.00
2018-02-06T10:41:51.644Z,54.43
2018-02-06T10:44:19.681Z,50.17
2018-02-06T10:46:47.562Z,54.17
2018-02-06T10:49:15.440Z,47.03
2018-02-06T10:51:43.394Z,60.87
2018-02-06T10:54:11.350Z,50.87
2018-02-06T10:56:41.190Z,63.10
2018-02-06T10:59:09.779Z,60.70
2018-02-06T11:01:37.633Z,56.20
2018-02-06T11:04:05.443Z,42.93
2018-02-06T11:06:33.341Z,51.90
2018-02-06T11:09:01.131Z,58.53
2018-02-06T11:11:29.003Z,48.43
2018-02-06T11:14:05.361Z,55.53
2018-02-06T11:16:33.713Z,56.97
2018-02-06T11:19:01.471Z,55.97
2018-02-06T11:21:29.278Z,56.17
2018-02-06T11:23:57.217Z,54.80
2018-02-06T11:26:25.186Z,56.63
2018-02-06T11:28:53.051Z,58.40
2018-02-06T11:31:20.968Z,64.00
2018-02-06T11:33:49.505Z,61.37
2018-02-06T11:36:17.484Z,58.57
2018-02-06T11:38:45.337Z,60.30
2018-02-06T11:41:13.409Z,60.43
2018-02-06T11:43:41.272Z,66.87
2018-02-06T11:46:09.430Z,80.97
2018-02-06T11:48:37.355Z,65.43
2018-02-06T11:51:06.013Z,61.20
2018-02-06T11:53:34.357Z,53.83
2018-02-06T11:56:02.272Z,65.80
2018-02-06T11:58:31.035Z,63.00
2018-02-06T12:01:00.667Z,61.63
2018-02-06T12:03:29.635Z,58.67
2018-02-06T12:06:02.805Z,58.97
2018-02-06T12:08:36.421Z,58.03
2018-02-06T12:11:05.442Z,61.33
2018-02-06T12:13:34.412Z,66.40
2018-02-06T12:16:03.606Z,65.07
2018-02-06T12:18:31.380Z,70.67
2018-02-06T12:20:59.307Z,58.67
2018-02-06T12:23:27.331Z,81.70
2018-02-06T12:25:55.487Z,74.50
2018-02-06T12:28:23.462Z,70.43
2018-02-06T12:30:51.350Z,72.90
2018-02-06T12:33:19.204Z,67.23
2018-02-06T12:35:47.081Z,62.50
2018-02-06T12:38:14.947Z,67.50
2018-02-06T12:40:42.999Z,67.40
2018-02-06T12:43:10.856Z,70.30
2018-02-06T12:45:38.697Z,74.73
2018-02-06T12:48:06.558Z,73.07
2018-02-06T12:50:34.293Z,65.67
2018-02-06T12:53:03.057Z,80.03
2018-02-06T12:55:30.928Z,73.97
2018-02-06T12:57:59.896Z,73.43
2018-02-06T13:00:27.721Z,79.63
2018-02-06T13:02:56.486Z,69.67
2018-02-06T13:05:25.157Z,80.60
2018-02-06T13:07:53.071Z,76.80
2018-02-06T13:10:21.378Z,68.10
2018-02-06T13:12:49.350Z,66.07
2018-02-06T13:15:17.233Z,75.33
2018-02-06T13:17:45.207Z,79.93
2018-02-06T13:20:13.069Z,74.10
2018-02-06T13:22:40.933Z,75.57
2018-02-06T13:25:08.803Z,87.13
2018-02-06T13:27:37.382Z,76.70
2018-02-06T13:30:05.346Z,82.07
2018-02-06T13:32:33.138Z,72.50
2018-02-06T13:35:00.986Z,75.63
2018-02-06T13:37:29.056Z,82.00
2018-02-06T13:39:57.036Z,75.27
2018-02-06T13:42:24.974Z,73.93
2018-02-06T13:44:52.810Z,69.40
2018-02-06T13:47:20.550Z,73.53
2018-02-06T13:49:49.187Z,87.17
2018-02-06T13:52:16.966Z,71.00
2018-02-06T13:54:45.023Z,70.90
2018-02-06T13:57:12.891Z,77.80
2018-02-06T13:59:40.760Z,73.60
2018-02-06T14:02:08.612Z,74.33
2018-02-06T14:04:36.485Z,71.60
2018-02-06T14:07:04.354Z,83.40
2018-02-06T14:09:32.183Z,79.00
2018-02-06T14:12:00.827Z,69.57
2018-02-06T14:14:28.691Z,76.50
2018-02-06T14:16:56.664Z,72.07
2018-02-06T14:19:24.504Z,74.47
2018-02-06T14:21:52.343Z,71.07
2018-02-06T14:24:20.491Z,76.53
2018-02-06T14:26:49.235Z,73.60
2018-02-06T14:29:17.107Z,79.23
2018-02-06T14:31:44.876Z,71.53
2018-02-06T14:34:12.767Z,74.33
2018-02-06T14:36:41.314Z,72.60
2018-02-06T14:39:09.215Z,70.83
2018-02-06T14:41:37.067Z,67.83
2018-02-06T14:44:05.034Z,72.30
2018-02-06T14:46:32.981Z,71.33
2018-02-06T14:49:00.755Z,79.67
2018-02-06T14:51:28.546Z,75.83
2018-02-06T14:53:57.210Z,86.10
2018-02-06T14:56:25.167Z,77.43
2018-02-06T14:58:52.900Z,80.17
2018-02-06T15:01:20.814Z,72.37
2018-02-06T15:03:49.581Z,72.87
2018-02-06T15:06:17.470Z,71.90
2018-02-06T15:08:45.417Z,75.60
2018-02-06T15:11:13.209Z,77.27
2018-02-06T15:13:41.153Z,78.87
2018-02-06T15:16:09.041Z,67.57
2018-02-06T15:18:36.900Z,75.30
2018-02-06T15:21:04.954Z,70.47
2018-02-06T15:23:32.734Z,79.40
2018-02-06T15:26:00.605Z,102.90
2018-02-06T15:28:28.467Z,76.93
2018-02-06T15:30:56.341Z,79.57
2018-02-06T15:33:24.111Z,76.07
2018-02-06T15:35:51.967Z,75.37
2018-02-06T15:38:19.735Z,78.30
2018-02-06T15:40:47.604Z,72.80
2018-02-06T15:43:15.617Z,78.87
2018-02-06T15:45:45.267Z,78.47
2018-02-06T15:48:13.021Z,77.73
2018-02-06T15:50:40.990Z,79.00
2018-02-06T15:53:08.957Z,80.37
2018-02-06T15:55:37.057Z,73.03
2018-02-06T15:58:05.015Z,76.40
2018-02-06T16:00:35.600Z,84.77
2018-02-06T16:03:03.498Z,93.03
2018-02-06T16:05:31.481Z,80.13
2018-02-06T16:07:59.258Z,90.03
2018-02-06T16:10:27.094Z,85.67
2018-02-06T16:12:54.886Z,87.73
2018-02-06T16:15:22.649Z,78.37
2018-02-06T16:17:50.593Z,75.17
2018-02-06T16:20:18.377Z,81.03
2018-02-06T16:22:46.281Z,89.30
2018-02-06T16:25:14.934Z,85.10
2018-02-06T16:27:42.799Z,98.50
2018-02-06T16:30:10.598Z,90.67
2018-02-06T16:32:38.487Z,86.87
2018-02-06T16:35:06.575Z,89.03
2018-02-06T16:37:34.443Z,95.47
2018-02-06T16:40:02.263Z,105.77
2018-02-06T16:42:31.003Z,135.77
2018-02-06T16:44:58.972Z,101.57
2018-02-06T16:47:26.853Z,96.53
2018-02-06T16:49:54.699Z,112.60
2018-02-06T16:52:22.678Z,110.00
2018-02-06T16:54:50.561Z,110.90
2018-02-06T16:57:18.428Z,119.10
2018-02-06T16:59:47.109Z,108.33
2018-02-06T17:02:27.238Z,109.67
2018-02-06T17:04:55.137Z,103.07
2018-02-06T17:07:23.004Z,105.63
2018-02-06T17:09:50.777Z,107.07
2018-02-06T17:12:18.908Z,95.83
2018-02-06T17:14:47.016Z,114.93
2018-02-06T17:17:14.950Z,130.00
2018-02-06T17:19:42.846Z,138.50
2018-02-06T17:22:10.883Z,120.33
2018-02-06T17:24:38.784Z,113.60
2018-02-06T17:27:06.616Z,115.20
2018-02-06T17:29:34.538Z,114.40
2018-02-06T17:32:03.111Z,114.20
2018-02-06T17:34:31.777Z,113.10
2018-02-06T17:36:59.841Z,138.20
2018-02-06T17:39:27.841Z,151.30
2018-02-06T17:41:56.499Z,150.83
2018-02-06T17:44:24.250Z,159.57
2018-02-06T17:46:52.132Z,140.63
2018-02-06T17:49:19.891Z,148.63
2018-02-06T17:51:47.843Z,150.53
2018-02-06T17:54:15.714Z,165.93
2018-02-06T17:56:43.571Z,145.63
2018-02-06T17:59:12.210Z,135.90
2018-02-06T18:01:40.881Z,132.43
2018-02-06T18:04:08.809Z,155.17
2018-02-06T18:06:37.528Z,137.37
2018-02-06T18:09:05.504Z,141.33
2018-02-06T18:11:33.309Z,151.77
2018-02-06T18:14:01.227Z,136.60
2018-02-06T18:16:28.994Z,153.40
2018-02-06T18:18:56.827Z,141.90
2018-02-06T18:21:24.899Z,141.77
2018-02-06T18:23:52.788Z,138.13
2018-02-06T18:26:20.651Z,139.67
2018-02-06T18:28:48.526Z,131.37
2018-02-06T18:31:16.734Z,145.60
2018-02-06T18:33:44.744Z,136.43
2018-02-06T18:36:12.714Z,130.73
2018-02-06T18:38:40.697Z,165.90
2018-02-06T18:41:08.576Z,160.80
2018-02-06T18:43:36.435Z,143.53
2018-02-06T18:46:08.727Z,134.70
2018-02-06T18:48:36.651Z,131.60
2018-02-06T18:51:04.438Z,144.30
2018-02-06T18:53:34.401Z,155.60
2018-02-06T18:56:02.614Z,139.20
2018-02-06T18:58:30.503Z,157.43
2018-02-06T19:00:58.785Z,170.03
2018-02-06T19:03:27.485Z,147.40
2018-02-06T19:05:56.402Z,135.87
2018-02-06T19:08:24.860Z,140.83
2018-02-06T19:10:54.112Z,153.50
2018-02-06T19:13:22.475Z,121.23
2018-02-06T19:15:50.989Z,137.67
2018-02-06T19:18:19.436Z,146.40
2018-02-06T19:20:48.431Z,131.83
2018-02-06T19:23:17.333Z,147.37
2018-02-06T19:25:46.242Z,131.83
2018-02-06T19:28:15.070Z,131.83
2018-02-06T19:30:43.488Z,144.60
2018-02-06T19:33:11.558Z,137.00
2018-02-06T19:35:39.836Z,143.70
2018-02-06T19:38:07.933Z,134.30
2018-02-06T19:40:35.865Z,147.37
2018-02-06T19:43:03.662Z,153.83
2018-02-06T19:45:31.539Z,153.43
2018-02-06T19:47:59.497Z,138.73
2018-02-06T19:50:28.259Z,139.40
2018-02-06T19:52:56.918Z,138.47
2018-02-06T19:55:24.945Z,141.90
2018-02-06T19:57:53.944Z,152.10
2018-02-06T20:00:21.986Z,153.30
2018-02-06T20:02:49.931Z,156.27
2018-02-06T20:05:18.087Z,169.30
2018-02-06T20:07:46.250Z,193.60
2018-02-06T20:10:15.020Z,177.70
2018-02-06T20:12:44.153Z,174.07
2018-02-06T20:15:12.255Z,173.30
2018-02-06T20:17:41.192Z,209.33
2018-02-06T20:20:10.802Z,194.23
2018-02-06T20:22:38.924Z,188.80
2018-02-06T20:25:07.210Z,196.13
2018-02-06T20:27:35.272Z,186.70
2018-02-06T20:30:03.262Z,179.20
2018-02-06T20:32:31.230Z,181.83
2018-02-06T20:34:59.182Z,195.63
2018-02-06T20:37:27.819Z,174.27
2018-02-06T20:39:55.823Z,154.07
2018-02-06T20:42:23.692Z,159.80
2018-02-06T20:44:51.485Z,163.53
2018-02-06T20:47:19.283Z,190.47
2018-02-06T20:49:48.147Z,166.60
2018-02-06T20:55:10.384Z,180.63
2018-02-06T20:57:38.330Z,159.80
2018-02-06T21:00:06.263Z,173.43
2018-02-06T21:02:34.986Z,181.70
2018-02-06T21:05:03.158Z,179.60
2018-02-06T21:07:31.235Z,166.03
2018-02-06T21:09:59.688Z,167.33
2018-02-06T21:12:27.890Z,171.17
2018-02-06T21:14:56.800Z,156.60
2018-02-06T21:17:25.488Z,164.67
2018-02-06T21:19:53.429Z,145.63
2018-02-06T21:22:21.512Z,152.77
2018-02-06T21:24:49.410Z,135.27
2018-02-06T21:27:18.186Z,174.80
2018-02-06T21:29:46.123Z,145.83
2018-02-06T21:32:14.091Z,143.37
2018-02-06T21:34:41.990Z,109.90
2018-02-06T21:37:10.543Z,118.63
2018-02-06T21:39:38.439Z,121.47
2018-02-06T21:42:06.274Z,128.17
2018-02-06T21:44:34.143Z,123.97
2018-02-06T21:47:02.213Z,107.67
2018-02-06T21:49:30.198Z,98.87
2018-02-06T21:51:58.181Z,147.77
2018-02-06T21:54:26.767Z,127.80
2018-02-06T21:56:54.697Z,104.40
2018-02-06T21:59:22.589Z,101.00
2018-02-06T22:01:51.904Z,97.63
2018-02-06T22:04:19.751Z,88.63
2018-02-06T22:06:47.823Z,94.10
2018-02-06T22:09:15.874Z,91.30
2018-02-06T22:11:43.988Z,120.03
2018-02-06T22:14:12.757Z,93.40
2018-02-06T22:16:41.851Z,99.50
2018-02-06T22:19:09.799Z,85.57
2018-02-06T22:21:37.621Z,93.23
2018-02-06T22:24:06.347Z,101.73
2018-02-06T22:26:34.453Z,92.30
2018-02-06T22:29:02.493Z,99.03
2018-02-06T22:31:30.386Z,92.57
2018-02-06T22:33:58.350Z,113.70
2018-02-06T22:36:26.430Z,102.53
2018-02-06T22:38:54.292Z,96.93
2018-02-06T22:41:22.204Z,100.33
2018-02-06T22:43:50.230Z,125.80
2018-02-06T22:46:18.026Z,101.30
2018-02-06T22:48:46.775Z,109.40
2018-02-06T22:51:15.466Z,97.00
2018-02-06T22:53:43.336Z,111.43
2018-02-06T22:56:11.614Z,110.60
2018-02-06T22:58:39.483Z,103.13
2018-02-06T23:01:07.343Z,101.93
2018-02-06T23:03:35.205Z,109.33
2018-02-06T23:06:03.865Z,68.93
2018-02-06T23:08:31.763Z,97.20
2018-02-06T23:10:59.823Z,89.53
2018-02-06T23:13:27.770Z,102.30
2018-02-06T23:15:56.054Z,91.80
2018-02-06T23:18:24.026Z,74.60
2018-02-06T23:20:51.981Z,93.40
2018-02-06T23:23:19.949Z,93.37
2018-02-06T23:25:48.842Z,92.03
2018-02-06T23:28:16.736Z,97.43
2018-02-06T23:30:44.676Z,82.93
2018-02-06T23:33:12.647Z,79.37
2018-02-06T23:35:41.146Z,77.10
2018-02-06T23:38:09.309Z,90.27
2018-02-06T23:40:37.367Z,98.50
2018-02-06T23:43:05.276Z,79.20
2018-02-06T23:45:33.132Z,88.13
2018-02-06T23:48:01.073Z,83.37
2018-02-06T23:50:28.984Z,87.97
2018-02-06T23:52:59.056Z,83.13
2018-02-06T23:55:27.251Z,86.03
2018-02-06T23:57:55.204Z,91.20
